Time;durP1;ratioP1;P1;durP2;ratioP2;P2;SDS_P1;SDS_P2;PMS_P1;PMS_P2;Temp;Humidity;BMP_temperature;BMP_pressure;BME280_temperature;BME280_humidity;BME280_pressure;Samples;Min_cycle;Max_cycle;Signal;HPM_P1;HPM_P2
2023/09/07 03:01:41;;;;;;;6.20;4.15;;;20.30;85.30;;;;;;5165186;22;20137;-89
2023/09/07 03:04:07;;;;;;;6.43;3.78;;;20.30;85.30;;;;;;5033852;28;20120;-89
2023/09/07 03:06:33;;;;;;;8.90;4.30;;;20.30;85.80;;;;;;5035036;28;20587;-88
2023/09/07 03:08:59;;;;;;;6.60;4.20;;;20.30;85.30;;;;;;5033787;28;20033;-90
2023/09/07 03:11:25;;;;;;;5.70;4.10;;;20.30;85.30;;;;;;5035823;28;20032;-90
2023/09/07 03:13:52;;;;;;;7.25;3.92;;;20.30;85.40;;;;;;5034854;28;20029;-90
2023/09/07 03:16:17;;;;;;;7.47;3.90;;;20.30;85.30;;;;;;5034191;28;20033;-91
2023/09/07 03:18:43;;;;;;;5.93;4.05;;;20.30;85.40;;;;;;5051697;28;20501;-90
2023/09/07 03:21:09;;;;;;;7.32;4.30;;;20.30;85.40;;;;;;5038111;28;20496;-90
2023/09/07 03:23:34;;;;;;;12.73;4.63;;;20.40;85.50;;;;;;5034456;28;20036;-89
2023/09/07 03:26:00;;;;;;;6.28;4.28;;;20.30;85.40;;;;;;5033637;28;20018;-89
2023/09/07 03:28:26;;;;;;;5.95;3.95;;;20.30;85.40;;;;;;5035448;28;20037;-90
2023/09/07 03:30:53;;;;;;;6.88;3.75;;;20.30;85.40;;;;;;5034784;28;20033;-91
2023/09/07 03:33:19;;;;;;;7.38;2.83;;;20.30;85.40;;;;;;5034448;28;20017;-90
2023/09/07 03:35:45;;;;;;;7.03;3.60;;;20.30;85.30;;;;;;5051740;28;20021;-90
2023/09/07 03:38:10;;;;;;;5.57;3.60;;;20.30;85.30;;;;;;5038211;28;20396;-90
2023/09/07 03:40:36;;;;;;;9.27;4.00;;;20.30;85.30;;;;;;5052650;28;20056;-90
2023/09/07 03:43:02;;;;;;;6.20;3.95;;;20.20;85.30;;;;;;5054777;28;20028;-90
2023/09/07 03:45:27;;;;;;;5.82;3.97;;;20.30;85.30;;;;;;5054379;28;20024;-90
2023/09/07 03:47:53;;;;;;;12.77;4.20;;;20.30;85.30;;;;;;5083932;28;20059;-90
2023/09/07 03:50:19;;;;;;;7.25;4.22;;;20.30;85.30;;;;;;5055431;28;20023;-89
2023/09/07 03:52:44;;;;;;;6.13;4.50;;;20.30;85.30;;;;;;5048846;28;20088;-89
2023/09/07 03:55:10;;;;;;;11.20;4.85;;;20.20;85.30;;;;;;5055939;28;20028;-90
2023/09/07 03:57:36;;;;;;;7.38;4.68;;;20.40;85.40;;;;;;5053993;28;20025;-90
2023/09/07 04:00:08;;;;;;;6.80;3.85;;;20.20;85.30;;;;;;5054401;28;20024;-90
2023/09/07 04:02:34;;;;;;;6.95;4.30;;;20.20;85.30;;;;;;5048037;28;20074;-89
2023/09/07 04:05:05;;;;;;;8.93;3.83;;;20.20;85.30;;;;;;5049707;28;20044;-90
2023/09/07 04:07:31;;;;;;;4.80;3.85;;;20.20;85.30;;;;;;5048312;28;20036;-90
2023/09/07 04:09:57;;;;;;;6.82;4.28;;;20.20;85.40;;;;;;5049317;28;20016;-90
2023/09/07 04:12:22;;;;;;;7.80;3.92;;;20.20;85.40;;;;;;5048677;28;20860;-89
2023/09/07 04:14:48;;;;;;;10.75;4.28;;;20.20;85.40;;;;;;5081196;28;20043;-90
2023/09/07 04:17:14;;;;;;;10.05;5.38;;;20.20;85.40;;;;;;5053727;28;20097;-90
2023/09/07 04:19:39;;;;;;;11.70;4.78;;;20.20;85.40;;;;;;5053998;28;20151;-90
2023/09/07 04:22:05;;;;;;;6.70;4.50;;;20.20;85.40;;;;;;5064228;28;20024;-90
2023/09/07 04:24:31;;;;;;;7.57;4.35;;;20.20;85.40;;;;;;5053298;28;20031;-90
2023/09/07 04:27:01;;;;;;;8.10;3.95;;;20.20;85.40;;;;;;5053753;28;20028;-88
2023/09/07 04:29:27;;;;;;;6.95;4.00;;;20.60;85.70;;;;;;5053921;28;20028;-89
2023/09/07 04:31:53;;;;;;;8.20;3.58;;;20.20;85.40;;;;;;5050577;28;20048;-90
2023/09/07 04:34:18;;;;;;;5.85;3.42;;;20.20;85.40;;;;;;5053173;28;20051;-90
2023/09/07 04:36:44;;;;;;;7.82;4.10;;;20.20;85.40;;;;;;5052913;28;20052;-89
2023/09/07 04:39:14;;;;;;;6.45;3.92;;;20.20;85.40;;;;;;5053824;28;20012;-89
2023/09/07 04:41:39;;;;;;;7.78;3.95;;;20.20;85.40;;;;;;5079702;28;20065;-90
2023/09/07 04:44:05;;;;;;;6.50;4.15;;;20.20;85.40;;;;;;5057477;28;20036;-89
2023/09/07 04:46:31;;;;;;;5.80;3.90;;;20.20;85.40;;;;;;5053252;28;20119;-90
2023/09/07 04:48:56;;;;;;;9.38;4.07;;;20.20;85.40;;;;;;5069496;28;20496;-90
2023/09/07 04:51:23;;;;;;;8.45;3.95;;;20.20;85.40;;;;;;5052070;28;20134;-89
2023/09/07 04:53:49;;;;;;;10.75;4.43;;;20.20;85.40;;;;;;5065251;28;20070;-89
2023/09/07 04:56:16;;;;;;;7.32;4.40;;;20.20;85.40;;;;;;5055592;28;20479;-90
2023/09/07 04:58:42;;;;;;;5.15;3.70;;;20.20;85.40;;;;;;5053340;28;20033;-89
2023/09/07 05:01:11;;;;;;;5.78;3.97;;;20.20;85.40;;;;;;5054037;28;20031;-90
2023/09/07 05:03:38;;;;;;;8.43;3.90;;;20.20;85.40;;;;;;5053880;28;20679;-89
2023/09/07 05:06:04;;;;;;;8.02;4.10;;;20.20;85.40;;;;;;5053549;28;20924;-89
2023/09/07 05:08:30;;;;;;;6.45;4.25;;;20.20;85.40;;;;;;5052476;28;20036;-91
2023/09/07 05:11:00;;;;;;;6.50;4.15;;;20.10;85.00;;;;;;5081304;28;20536;-91
2023/09/07 05:13:26;;;;;;;7.88;4.22;;;20.10;84.40;;;;;;5050755;28;20025;-91
2023/09/07 05:15:53;;;;;;;6.75;4.97;;;20.00;84.30;;;;;;5070523;28;20029;-91
2023/09/07 05:18:19;;;;;;;8.07;4.10;;;20.00;84.50;;;;;;5054890;28;20577;-91
2023/09/07 05:20:45;;;;;;;8.95;4.45;;;19.90;84.60;;;;;;5054038;28;20060;-91
2023/09/07 05:23:12;;;;;;;12.10;4.40;;;19.90;84.70;;;;;;5071305;28;20188;-91
2023/09/07 05:26:04;;;;;;;5.95;3.80;;;19.80;84.80;;;;;;5052720;28;20028;-91
2023/09/07 05:28:30;;;;;;;8.35;4.50;;;19.80;85.00;;;;;;5051666;28;20039;-90
2023/09/07 05:30:55;;;;;;;6.90;4.38;;;19.80;85.10;;;;;;5058024;28;20107;-91
2023/09/07 05:33:21;;;;;;;8.57;4.72;;;19.70;85.40;;;;;;5057111;28;20359;-91
2023/09/07 05:35:46;;;;;;;6.72;4.28;;;19.70;85.70;;;;;;5054835;28;20028;-91
2023/09/07 05:38:12;;;;;;;7.93;4.00;;;19.70;85.90;;;;;;5086586;28;20472;-92
2023/09/07 05:40:40;;;;;;;5.40;4.50;;;19.70;86.00;;;;;;5072919;28;20025;-93
2023/09/07 05:43:06;;;;;;;11.40;4.40;;;19.70;86.10;;;;;;5057952;28;20017;-91
2023/09/07 05:45:37;;;;;;;10.00;4.78;;;19.90;86.30;;;;;;5057043;28;20035;-91
2023/09/07 05:48:03;;;;;;;10.68;5.13;;;19.60;86.10;;;;;;5072514;28;20040;-92
2023/09/07 05:50:29;;;;;;;6.60;4.28;;;19.60;86.40;;;;;;5057944;28;20021;-92
2023/09/07 05:52:55;;;;;;;8.27;4.65;;;19.80;86.60;;;;;;5085179;28;20024;-92
2023/09/07 05:55:20;;;;;;;7.00;4.03;;;19.70;86.50;;;;;;5056762;28;20489;-92
2023/09/07 05:57:46;;;;;;;7.28;4.50;;;19.60;86.50;;;;;;5057080;28;20032;-92
2023/09/07 06:00:13;;;;;;;6.45;4.00;;;19.60;86.30;;;;;;5057056;28;20020;-92
2023/09/07 06:02:39;;;;;;;6.80;4.35;;;19.60;86.20;;;;;;5072230;28;20043;-93
2023/09/07 06:05:05;;;;;;;7.47;4.05;;;19.60;86.30;;;;;;5070959;28;20078;-92
2023/09/07 06:07:30;;;;;;;7.70;4.82;;;19.60;86.30;;;;;;5074596;28;20592;-91
2023/09/07 06:09:58;;;;;;;10.15;4.45;;;19.60;86.50;;;;;;5055879;28;20119;-93
2023/09/07 06:12:24;;;;;;;9.43;4.25;;;19.70;86.70;;;;;;5056439;28;20033;-91
2023/09/07 06:14:50;;;;;;;10.68;4.57;;;19.60;86.60;;;;;;5052981;28;20047;-92
2023/09/07 06:17:15;;;;;;;4.72;3.70;;;19.60;86.60;;;;;;5055174;28;20090;-92
2023/09/07 06:19:41;;;;;;;5.07;4.25;;;19.60;86.80;;;;;;5056482;28;20039;-92
2023/09/07 06:22:07;;;;;;;6.72;4.97;;;19.60;86.80;;;;;;5056141;28;20033;-92
2023/09/07 06:24:32;;;;;;;7.00;4.22;;;19.60;87.10;;;;;;5052166;28;20059;-91
2023/09/07 06:26:58;;;;;;;6.05;4.05;;;19.70;87.30;;;;;;5065758;28;20032;-92
2023/09/07 06:29:23;;;;;;;9.30;4.30;;;19.70;87.30;;;;;;5057396;28;20480;-92
2023/09/07 06:31:49;;;;;;;7.70;3.90;;;19.60;87.30;;;;;;5055980;28;20021;-91
2023/09/07 06:34:16;;;;;;;9.05;4.63;;;19.70;87.50;;;;;;5051087;28;20033;-90
2023/09/07 06:36:41;;;;;;;13.63;5.07;;;19.60;87.50;;;;;;5054660;28;20039;-89
2023/09/07 06:39:07;;;;;;;8.15;5.18;;;19.70;87.60;;;;;;5049703;28;20021;-92
2023/09/07 06:41:33;;;;;;;7.13;4.60;;;19.70;87.60;;;;;;5057295;28;20033;-92
2023/09/07 06:43:58;;;;;;;6.68;4.90;;;19.70;87.50;;;;;;5069615;28;20040;-90
2023/09/07 06:46:24;;;;;;;8.80;5.13;;;19.80;87.60;;;;;;5055019;28;20028;-93
2023/09/07 06:48:50;;;;;;;12.23;4.95;;;19.80;87.60;;;;;;5053090;28;20039;-93
2023/09/07 06:51:15;;;;;;;7.15;4.53;;;19.80;87.60;;;;;;5071719;28;20058;-92
2023/09/07 06:53:41;;;;;;;11.50;4.75;;;20.20;87.80;;;;;;5053743;28;20032;-93
2023/09/07 06:56:07;;;;;;;14.20;5.03;;;19.80;87.50;;;;;;5080086;28;20035;-96
2023/09/07 06:58:34;;;;;;;7.28;4.85;;;19.80;87.50;;;;;;5055842;28;20488;-92
2023/09/07 07:01:00;;;;;;;9.07;4.40;;;19.80;87.30;;;;;;5054529;28;20024;-93
2023/09/07 07:03:28;;;;;;;7.90;5.43;;;19.80;87.30;;;;;;5055323;28;20041;-93
2023/09/07 07:05:54;;;;;;;8.25;5.22;;;19.80;87.30;;;;;;5068281;28;20025;-94
2023/09/07 07:08:20;;;;;;;6.63;4.90;;;19.80;87.30;;;;;;5051360;28;20032;-94
2023/09/07 07:10:45;;;;;;;6.85;5.22;;;19.80;87.30;;;;;;5066656;28;20029;-93
2023/09/07 07:13:11;;;;;;;13.57;6.10;;;19.90;87.40;;;;;;5082655;28;20037;-94
2023/09/07 07:15:37;;;;;;;16.88;5.38;;;19.90;87.40;;;;;;5054351;28;20020;-93
2023/09/07 07:18:08;;;;;;;11.25;5.05;;;19.90;87.50;;;;;;5051258;28;20103;-94
2023/09/07 07:20:44;;;;;;;10.68;5.70;;;19.90;87.50;;;;;;5052181;28;20032;-90
2023/09/07 07:23:11;;;;;;;6.90;5.10;;;19.90;87.50;;;;;;5070194;28;20024;-95
2023/09/07 07:25:37;;;;;;;9.52;6.28;;;19.90;87.60;;;;;;5054955;28;20020;-93
2023/09/07 07:28:06;;;;;;;12.20;5.93;;;19.90;87.60;;;;;;5053216;28;20058;-92
2023/09/07 07:30:36;;;;;;;14.75;6.25;;;19.90;87.70;;;;;;5054755;28;20388;-95
2023/09/07 07:33:03;;;;;;;12.05;6.18;;;20.00;87.80;;;;;;5068765;28;20024;-92
2023/09/07 07:35:34;;;;;;;8.32;5.90;;;19.90;87.80;;;;;;5066155;28;20016;-90
2023/09/07 07:38:00;;;;;;;11.18;5.53;;;19.90;87.90;;;;;;5054716;28;20079;-89
2023/09/07 07:40:26;;;;;;;11.18;5.97;;;19.90;87.90;;;;;;5054536;28;20054;-90
2023/09/07 07:42:52;;;;;;;9.27;6.40;;;20.00;88.00;;;;;;5053381;28;20565;-88
2023/09/07 07:45:19;;;;;;;7.50;6.07;;;20.00;87.90;;;;;;5051807;28;20469;-88
2023/09/07 07:47:46;;;;;;;11.80;7.25;;;20.00;87.90;;;;;;5054941;28;20033;-91
2023/09/07 07:50:11;;;;;;;11.65;6.32;;;20.00;87.80;;;;;;5052704;28;20032;-88
2023/09/07 07:52:37;;;;;;;12.32;6.32;;;20.00;87.80;;;;;;5053546;28;20022;-89
2023/09/07 07:55:03;;;;;;;10.30;5.57;;;20.00;87.90;;;;;;5052004;28;20031;-91
2023/09/07 07:57:29;;;;;;;9.20;6.07;;;20.00;87.80;;;;;;5053434;28;20088;-89
2023/09/07 07:59:56;;;;;;;12.10;6.22;;;20.00;87.80;;;;;;5052963;28;20099;-90
2023/09/07 08:02:21;;;;;;;13.55;7.30;;;20.00;87.90;;;;;;5065934;28;20160;-90
2023/09/07 08:04:47;;;;;;;10.23;5.88;;;20.00;87.80;;;;;;5046677;28;20121;-89
2023/09/07 08:07:13;;;;;;;13.73;5.70;;;20.00;87.80;;;;;;5048898;28;20035;-89
2023/09/07 08:09:38;;;;;;;9.73;6.72;;;20.10;87.90;;;;;;5051487;28;20021;-90
2023/09/07 08:12:05;;;;;;;11.48;7.18;;;20.10;87.90;;;;;;5052676;28;20020;-89
2023/09/07 08:14:31;;;;;;;9.43;5.78;;;20.10;87.90;;;;;;5049753;28;20032;-90
2023/09/07 08:16:58;;;;;;;10.13;5.90;;;20.10;87.90;;;;;;5070229;28;20035;-90
2023/09/07 08:19:24;;;;;;;15.00;6.93;;;20.10;87.90;;;;;;5053528;28;20039;-90
2023/09/07 08:21:50;;;;;;;13.23;6.80;;;20.10;87.90;;;;;;5053864;28;20055;-90
2023/09/07 08:24:16;;;;;;;9.70;6.90;;;20.10;87.90;;;;;;5052843;28;20032;-90
2023/09/07 08:26:42;;;;;;;10.40;5.75;;;20.10;87.90;;;;;;5053861;28;20036;-89
2023/09/07 08:29:09;;;;;;;17.50;6.82;;;20.10;87.90;;;;;;5067214;28;20113;-88
2023/09/07 08:31:40;;;;;;;11.57;6.78;;;20.10;87.90;;;;;;5053001;28;20048;-88
2023/09/07 08:34:09;;;;;;;13.15;6.40;;;20.10;87.90;;;;;;5051861;28;20127;-89
2023/09/07 08:36:35;;;;;;;10.57;5.95;;;20.10;87.90;;;;;;5053794;28;20056;-89
2023/09/07 08:39:05;;;;;;;11.93;7.18;;;20.10;87.90;;;;;;5052837;28;20067;-88
2023/09/07 08:41:41;;;;;;;11.98;7.13;;;20.10;87.90;;;;;;5036081;28;20056;-88
2023/09/07 08:44:09;;;;;;;11.40;6.60;;;20.10;87.90;;;;;;5056405;28;20511;-89
2023/09/07 08:46:36;;;;;;;12.60;6.80;;;20.10;87.90;;;;;;5053420;28;20067;-89
2023/09/07 08:49:03;;;;;;;14.15;6.45;;;20.10;87.90;;;;;;5053117;28;20052;-89
2023/09/07 08:51:28;;;;;;;16.42;7.00;;;20.20;87.90;;;;;;5056048;28;20029;-89
2023/09/07 08:53:56;;;;;;;12.55;6.40;;;20.40;88.10;;;;;;5052129;28;20025;-89
2023/09/07 08:56:22;;;;;;;10.15;6.00;;;20.10;87.90;;;;;;5079796;28;20020;-90
2023/09/07 08:58:49;;;;;;;12.82;6.43;;;20.20;87.90;;;;;;5053026;28;20027;-89
2023/09/07 09:01:15;;;;;;;10.43;6.88;;;20.10;87.90;;;;;;5048550;28;20041;-90
2023/09/07 09:03:46;;;;;;;15.20;6.53;;;20.20;87.90;;;;;;5048461;28;20027;-90
2023/09/07 09:06:12;;;;;;;9.80;7.35;;;20.20;87.90;;;;;;5046357;28;20037;-90
2023/09/07 09:08:49;;;;;;;10.70;6.82;;;20.20;88.60;;;;;;5051843;28;20519;-89
2023/09/07 09:11:16;;;;;;;8.40;6.03;;;20.20;87.90;;;;;;5051072;28;20029;-90
2023/09/07 09:13:42;;;;;;;14.38;6.55;;;20.20;87.90;;;;;;5051355;28;20521;-89
2023/09/07 09:16:09;;;;;;;13.90;6.63;;;20.20;87.90;;;;;;5051492;28;20029;-88
2023/09/07 09:18:35;;;;;;;11.00;6.75;;;20.20;87.90;;;;;;5053160;28;20050;-90
2023/09/07 09:21:00;;;;;;;9.63;6.65;;;20.20;87.90;;;;;;5075665;28;20107;-90
2023/09/07 09:23:35;;;;;;;13.10;6.47;;;20.20;87.90;;;;;;5049396;28;20032;-89
2023/09/07 09:26:03;;;;;;;12.05;8.00;;;20.20;87.90;;;;;;5051966;28;20048;-88
2023/09/07 09:28:31;;;;;;;13.85;6.75;;;20.20;87.90;;;;;;5053685;28;20025;-90
2023/09/07 09:31:01;;;;;;;9.18;5.55;;;20.20;87.90;;;;;;5066864;28;20028;-89
2023/09/07 09:33:30;;;;;;;10.30;7.07;;;20.20;87.90;;;;;;5048158;28;20107;-89
2023/09/07 09:35:56;;;;;;;8.88;5.60;;;20.20;87.90;;;;;;5052810;28;20037;-89
2023/09/07 09:38:22;;;;;;;9.38;6.45;;;20.30;88.00;;;;;;5051044;28;20018;-89
2023/09/07 09:40:47;;;;;;;12.52;6.80;;;20.30;88.70;;;;;;5054296;28;20031;-90
2023/09/07 09:43:13;;;;;;;15.88;7.95;;;20.20;87.90;;;;;;5047221;28;20024;-89
2023/09/07 09:45:40;;;;;;;10.68;4.85;;;20.30;88.00;;;;;;5066256;28;20029;-91
2023/09/07 09:48:06;;;;;;;16.05;6.38;;;20.30;88.00;;;;;;5052938;28;20473;-90
2023/09/07 09:50:38;;;;;;;10.15;7.22;;;20.30;87.90;;;;;;5065717;28;20480;-89
2023/09/07 09:53:07;;;;;;;8.32;6.07;;;20.20;87.90;;;;;;5048621;28;20028;-89
2023/09/07 09:55:38;;;;;;;11.18;6.75;;;20.30;88.00;;;;;;5077465;28;20036;-89
2023/09/07 09:58:04;;;;;;;12.02;6.72;;;20.40;88.70;;;;;;5052635;28;20062;-90
2023/09/07 10:00:31;;;;;;;11.43;6.15;;;20.30;87.90;;;;;;5051869;28;20046;-89
2023/09/07 10:03:05;;;;;;;12.27;6.82;;;20.30;87.90;;;;;;5052241;28;20028;-90
2023/09/07 10:05:31;;;;;;;11.40;6.55;;;20.30;88.00;;;;;;5050163;28;20116;-89
2023/09/07 10:08:13;;;;;;;8.70;5.90;;;20.30;87.90;;;;;;5052622;28;20048;-89
2023/09/07 10:10:42;;;;;;;9.60;6.57;;;20.30;87.90;;;;;;5052940;28;20477;-89
2023/09/07 10:13:07;;;;;;;13.65;8.27;;;20.40;88.00;;;;;;5055804;28;20017;-90
2023/09/07 10:15:35;;;;;;;8.85;5.93;;;20.30;88.00;;;;;;5056697;28;20415;-90
2023/09/07 10:18:13;;;;;;;8.85;5.57;;;20.30;88.00;;;;;;5054320;28;20028;-89
2023/09/07 10:20:55;;;;;;;12.10;6.38;;;20.60;88.20;;;;;;5053551;28;20081;-89
2023/09/07 10:23:21;;;;;;;10.85;5.88;;;20.40;88.10;;;;;;5050730;28;20028;-90
2023/09/07 10:25:52;;;;;;;13.73;5.95;;;20.40;88.10;;;;;;5056218;28;20027;-90
2023/09/07 10:28:19;;;;;;;14.25;6.45;;;20.40;88.10;;;;;;5053521;28;20606;-90
2023/09/07 10:30:45;;;;;;;14.00;6.32;;;20.40;88.10;;;;;;5065414;28;20028;-91
2023/09/07 10:33:23;;;;;;;10.32;7.20;;;20.50;88.20;;;;;;5051541;28;20538;-91
2023/09/07 10:35:48;;;;;;;10.00;6.07;;;20.40;88.20;;;;;;5046478;28;20020;-89
2023/09/07 10:38:14;;;;;;;11.57;5.82;;;20.40;88.20;;;;;;5055744;28;20043;-90
2023/09/07 10:40:43;;;;;;;10.68;6.53;;;20.40;88.20;;;;;;5056107;28;20099;-90
2023/09/07 10:43:09;;;;;;;7.95;4.95;;;20.40;88.20;;;;;;5052571;28;20072;-90
2023/09/07 10:45:35;;;;;;;9.48;5.50;;;20.40;88.20;;;;;;5055551;28;20478;-89
2023/09/07 10:48:03;;;;;;;10.10;6.10;;;20.40;88.30;;;;;;5054854;28;20036;-91
2023/09/07 10:50:29;;;;;;;15.63;5.90;;;20.40;88.30;;;;;;5052283;28;20029;-90
2023/09/07 10:52:55;;;;;;;9.95;6.65;;;20.40;88.30;;;;;;5051984;28;20032;-90
2023/09/07 10:55:20;;;;;;;14.93;6.95;;;20.40;88.30;;;;;;5054834;28;20373;-90
2023/09/07 10:57:47;;;;;;;14.18;7.53;;;20.40;88.30;;;;;;5053461;28;20020;-91
2023/09/07 11:00:14;;;;;;;11.43;5.68;;;20.50;88.40;;;;;;5071370;28;20028;-91
2023/09/07 11:02:42;;;;;;;10.55;5.57;;;20.40;88.30;;;;;;5070281;28;20034;-90
2023/09/07 11:05:08;;;;;;;9.85;5.97;;;20.40;89.10;;;;;;5054169;28;20020;-90
2023/09/07 11:07:34;;;;;;;11.43;6.32;;;20.50;88.40;;;;;;5050666;28;20052;-91
2023/09/07 11:10:03;;;;;;;13.20;5.95;;;20.50;88.50;;;;;;5054377;28;20131;-90
2023/09/07 11:12:29;;;;;;;12.45;7.18;;;20.50;88.50;;;;;;5050800;28;20476;-89
2023/09/07 11:14:56;;;;;;;11.90;6.65;;;20.40;88.40;;;;;;5052783;28;20042;-89
2023/09/07 11:17:28;;;;;;;11.32;6.68;;;20.50;88.60;;;;;;5053948;28;20380;-91
2023/09/07 11:19:54;;;;;;;8.70;6.18;;;20.50;88.50;;;;;;5055296;28;20043;-90
2023/09/07 11:22:20;;;;;;;10.57;5.93;;;20.50;88.50;;;;;;5054113;28;20025;-91
2023/09/07 11:24:46;;;;;;;11.43;6.38;;;20.50;88.50;;;;;;5049953;28;20374;-91
2023/09/07 11:27:12;;;;;;;11.93;5.97;;;20.50;88.60;;;;;;5052698;28;20111;-90
2023/09/07 11:29:41;;;;;;;12.73;5.85;;;20.50;88.60;;;;;;5081404;28;20111;-91
2023/09/07 11:32:09;;;;;;;24.73;13.80;;;20.50;88.60;;;;;;5051477;28;20067;-92
2023/09/07 11:34:35;;;;;;;13.95;7.72;;;20.50;88.60;;;;;;5051027;28;20556;-89
2023/09/07 11:37:03;;;;;;;10.35;5.97;;;20.50;88.60;;;;;;5050257;28;20020;-88
2023/09/07 11:39:29;;;;;;;8.85;5.85;;;20.60;88.70;;;;;;5053865;28;20021;-91
2023/09/07 11:41:54;;;;;;;8.85;6.18;;;20.50;88.70;;;;;;5056582;28;20016;-92
2023/09/07 11:44:21;;;;;;;11.30;6.60;;;20.60;88.80;;;;;;5054442;28;20080;-91
2023/09/07 11:46:47;;;;;;;14.75;6.15;;;20.50;88.80;;;;;;5054029;28;20021;-89
2023/09/07 11:49:13;;;;;;;10.07;6.57;;;20.60;88.90;;;;;;5051203;28;20035;-91
2023/09/07 11:51:39;;;;;;;12.20;7.18;;;20.60;89.00;;;;;;5054349;28;20354;-92
2023/09/07 11:54:05;;;;;;;11.88;6.65;;;20.60;89.00;;;;;;5055078;28;20070;-92
2023/09/07 11:56:30;;;;;;;16.85;7.47;;;20.60;89.00;;;;;;5072137;28;20017;-91
2023/09/07 11:58:57;;;;;;;14.05;6.47;;;20.60;89.10;;;;;;5068025;28;20099;-91
2023/09/07 12:01:23;;;;;;;11.57;5.88;;;20.60;89.00;;;;;;5052694;28;20433;-89
2023/09/07 12:03:48;;;;;;;13.45;6.15;;;20.60;89.10;;;;;;5047801;28;20032;-91
2023/09/07 12:06:15;;;;;;;9.13;5.88;;;20.60;89.10;;;;;;5051835;28;20032;-89
2023/09/07 12:08:57;;;;;;;11.23;6.22;;;20.60;89.10;;;;;;5069429;28;20036;-89
2023/09/07 12:11:23;;;;;;;11.68;6.20;;;20.60;89.10;;;;;;5053673;28;20028;-89
2023/09/07 12:13:49;;;;;;;10.55;5.30;;;20.60;89.10;;;;;;5052139;28;20039;-90
2023/09/07 12:16:14;;;;;;;9.65;6.75;;;20.60;89.10;;;;;;5049863;28;20029;-92
2023/09/07 12:18:40;;;;;;;7.75;5.57;;;20.70;89.20;;;;;;5078633;28;20385;-92
2023/09/07 12:21:06;;;;;;;12.07;5.90;;;20.70;89.20;;;;;;5050732;28;20534;-92
2023/09/07 12:23:32;;;;;;;11.73;6.60;;;20.70;89.20;;;;;;5065043;28;20055;-89
2023/09/07 12:25:58;;;;;;;8.20;6.57;;;20.70;89.20;;;;;;5066642;28;20024;-91
2023/09/07 12:28:23;;;;;;;8.23;5.20;;;20.70;89.20;;;;;;5048621;28;20044;-90
2023/09/07 12:30:49;;;;;;;9.88;6.65;;;20.70;90.00;;;;;;5050758;28;20452;-92
2023/09/07 12:33:15;;;;;;;8.80;5.88;;;20.70;89.30;;;;;;5048974;28;20024;-92
2023/09/07 12:35:40;;;;;;;11.13;5.72;;;20.70;89.30;;;;;;5050477;28;20135;-91
2023/09/07 12:38:07;;;;;;;9.65;6.18;;;20.70;89.30;;;;;;5050937;28;20044;-91
2023/09/07 12:40:32;;;;;;;12.25;6.22;;;20.70;89.30;;;;;;5050633;28;20025;-92
2023/09/07 12:42:58;;;;;;;8.77;5.93;;;20.70;89.30;;;;;;5049558;28;20070;-90
2023/09/07 12:45:24;;;;;;;12.50;6.80;;;20.70;89.40;;;;;;5052697;28;20048;-92
2023/09/07 12:47:49;;;;;;;7.93;5.55;;;20.70;89.40;;;;;;5054017;28;20029;-93
2023/09/07 12:50:15;;;;;;;12.65;6.10;;;20.70;89.30;;;;;;5053634;28;20021;-89
2023/09/07 12:52:48;;;;;;;11.98;5.57;;;20.70;89.40;;;;;;5055585;28;20062;-90
2023/09/07 12:55:14;;;;;;;13.38;5.68;;;20.80;89.50;;;;;;5056786;28;20095;-93
2023/09/07 12:57:40;;;;;;;9.23;6.40;;;20.70;89.40;;;;;;5068885;28;20089;-93
2023/09/07 13:00:06;;;;;;;7.93;4.85;;;20.70;89.40;;;;;;5054322;28;20090;-90
2023/09/07 13:02:32;;;;;;;14.82;6.05;;;20.70;89.50;;;;;;5047948;28;20123;-91
2023/09/07 13:04:58;;;;;;;12.55;5.40;;;20.70;89.50;;;;;;5040763;28;20025;-91
2023/09/07 13:07:23;;;;;;;8.77;5.68;;;20.80;89.60;;;;;;5050358;28;20086;-89
2023/09/07 13:09:49;;;;;;;8.82;5.85;;;20.70;89.50;;;;;;5062724;28;20024;-89
2023/09/07 13:12:15;;;;;;;7.95;5.70;;;20.70;89.50;;;;;;5049466;28;20473;-92
2023/09/07 13:14:41;;;;;;;14.50;5.32;;;20.70;89.50;;;;;;5052873;28;20048;-91
2023/09/07 13:17:11;;;;;;;9.88;5.05;;;20.70;89.50;;;;;;5053238;28;20491;-91
2023/09/07 13:19:37;;;;;;;9.55;4.97;;;20.70;89.60;;;;;;5053559;28;20020;-92
2023/09/07 13:22:03;;;;;;;9.32;4.97;;;20.70;89.60;;;;;;5051483;28;20435;-91
2023/09/07 13:24:29;;;;;;;8.25;5.15;;;20.70;89.60;;;;;;5052360;28;20021;-92
2023/09/07 13:26:55;;;;;;;9.13;6.60;;;20.70;89.70;;;;;;5064555;28;20040;-96
2023/09/07 13:29:21;;;;;;;14.48;5.95;;;20.80;90.40;;;;;;5048424;28;20055;-90
2023/09/07 13:31:46;;;;;;;15.27;5.43;;;20.90;90.70;;;;;;5047878;28;20024;-89
2023/09/07 13:34:12;;;;;;;9.35;5.50;;;20.90;91.00;;;;;;5046356;28;20032;-89
2023/09/07 13:36:38;;;;;;;11.18;5.60;;;21.00;91.40;;;;;;5069070;28;20013;-89
2023/09/07 13:39:04;;;;;;;10.68;6.30;;;21.00;91.40;;;;;;5053272;28;20016;-88
2023/09/07 13:41:29;;;;;;;8.40;5.20;;;21.10;91.60;;;;;;5053048;28;20021;-89
2023/09/07 13:43:56;;;;;;;7.47;5.55;;;21.10;91.70;;;;;;5070147;28;20017;-90
2023/09/07 13:46:23;;;;;;;8.68;5.03;;;21.10;91.80;;;;;;5069279;28;20029;-89
2023/09/07 13:48:48;;;;;;;11.75;5.47;;;21.20;91.80;;;;;;5072338;28;20031;-88
2023/09/07 13:51:14;;;;;;;8.57;5.45;;;21.10;91.80;;;;;;5050552;28;20020;-88
2023/09/07 13:53:40;;;;;;;15.13;5.15;;;21.10;91.80;;;;;;5072591;28;20020;-89
2023/09/07 13:56:05;;;;;;;13.82;5.10;;;21.20;91.80;;;;;;5056837;28;20024;-88
2023/09/07 13:58:31;;;;;;;10.63;5.13;;;21.20;91.80;;;;;;5068630;28;20028;-88
2023/09/07 14:00:56;;;;;;;10.13;4.78;;;21.30;92.00;;;;;;5078633;28;20021;-88
2023/09/07 14:03:22;;;;;;;15.32;5.32;;;21.20;91.70;;;;;;5055010;28;20075;-90
2023/09/07 14:05:48;;;;;;;9.30;4.47;;;21.20;92.00;;;;;;5056698;28;20012;-90
2023/09/07 14:08:13;;;;;;;6.55;4.38;;;21.20;91.90;;;;;;5072932;28;20032;-89
2023/09/07 14:10:39;;;;;;;7.88;5.47;;;21.20;92.10;;;;;;5073066;28;20038;-89
2023/09/07 14:13:05;;;;;;;10.38;5.28;;;21.30;92.00;;;;;;5057018;28;20094;-90
2023/09/07 14:15:31;;;;;;;7.32;5.25;;;21.30;91.90;;;;;;5055440;28;20020;-88
2023/09/07 14:17:57;;;;;;;9.07;4.90;;;21.20;91.80;;;;;;5072976;28;20056;-88
2023/09/07 14:20:23;;;;;;;11.10;4.85;;;21.20;92.00;;;;;;5051081;28;20060;-86
2023/09/07 14:22:49;;;;;;;6.75;5.05;;;21.30;92.10;;;;;;5066311;28;20021;-88
2023/09/07 14:25:16;;;;;;;8.70;5.00;;;21.20;92.10;;;;;;5052804;28;20021;-90
2023/09/07 14:27:42;;;;;;;13.68;5.05;;;21.30;91.90;;;;;;5053617;28;20036;-89
2023/09/07 14:30:09;;;;;;;11.82;5.13;;;21.30;91.80;;;;;;5079650;28;20060;-90
2023/09/07 14:32:35;;;;;;;8.07;4.63;;;21.30;91.80;;;;;;5071711;28;20032;-89
2023/09/07 14:35:01;;;;;;;11.18;4.90;;;21.20;91.80;;;;;;5069975;28;20461;-90
2023/09/07 14:37:27;;;;;;;11.77;5.00;;;21.30;91.80;;;;;;5075203;28;20031;-85
2023/09/07 14:39:57;;;;;;;8.65;4.50;;;21.30;91.70;;;;;;5054268;28;20020;-84
2023/09/07 14:42:23;;;;;;;7.15;4.47;;;21.30;91.80;;;;;;5071677;28;20047;-96
2023/09/07 14:44:50;;;;;;;8.75;4.50;;;21.30;91.70;;;;;;5076931;28;20025;-92
2023/09/07 14:47:16;;;;;;;11.02;4.32;;;21.30;91.80;;;;;;5053086;28;20051;-85
2023/09/07 14:49:42;;;;;;;6.43;4.32;;;21.30;91.60;;;;;;5057275;28;20388;-87
2023/09/07 14:52:08;;;;;;;6.80;4.57;;;21.30;91.60;;;;;;5072931;28;20020;-92
2023/09/07 14:54:34;;;;;;;8.73;4.60;;;21.30;91.60;;;;;;5057829;28;20340;-88
2023/09/07 14:57:02;;;;;;;6.68;3.88;;;21.60;91.60;;;;;;5056304;28;20031;-92
2023/09/07 14:59:28;;;;;;;7.53;4.15;;;21.30;91.60;;;;;;5050026;28;20128;-88
2023/09/07 15:01:54;;;;;;;8.80;4.05;;;21.30;91.50;;;;;;5070225;28;20036;-91
2023/09/07 15:04:21;;;;;;;8.80;3.80;;;21.30;91.50;;;;;;5072620;28;20426;-88
2023/09/07 15:06:46;;;;;;;9.57;3.95;;;21.30;91.50;;;;;;5072843;28;20044;-94
2023/09/07 15:09:12;;;;;;;8.65;4.05;;;21.30;91.30;;;;;;5072415;28;20485;-93
2023/09/07 15:11:37;;;;;;;8.98;3.70;;;21.40;91.10;;;;;;5074154;28;20059;-85
2023/09/07 15:14:05;;;;;;;8.20;3.80;;;21.30;91.00;;;;;;5054760;28;20021;-89
2023/09/07 15:16:30;;;;;;;10.45;4.25;;;21.30;91.10;;;;;;5066624;28;20065;-89
2023/09/07 15:18:56;;;;;;;5.60;3.67;;;21.30;91.00;;;;;;5069235;28;20080;-91
2023/09/07 15:21:22;;;;;;;5.20;3.53;;;21.40;90.60;;;;;;5054441;28;20028;-86
2023/09/07 15:23:48;;;;;;;7.53;4.20;;;21.30;90.70;;;;;;5066910;28;20021;-88
2023/09/07 15:26:14;;;;;;;8.55;3.72;;;21.40;90.40;;;;;;5051307;28;20111;-85
2023/09/07 15:28:39;;;;;;;10.32;4.43;;;21.30;90.30;;;;;;5068467;28;20116;-84
2023/09/07 15:31:05;;;;;;;5.38;3.55;;;21.30;90.30;;;;;;5077271;28;20473;-83
2023/09/07 15:33:31;;;;;;;6.78;3.45;;;21.30;90.30;;;;;;5071887;28;20039;-89
2023/09/07 15:35:57;;;;;;;5.72;3.72;;;21.40;89.70;;;;;;5082280;28;20485;-87
2023/09/07 15:38:23;;;;;;;5.68;3.55;;;21.30;89.80;;;;;;5055118;28;20115;-83
2023/09/07 15:40:49;;;;;;;14.68;4.50;;;21.30;89.80;;;;;;5069215;28;20631;-92